sensor_id;sensor_type;location;lat;lon;timestamp;P1;durP1;ratioP1;P2;durP2;ratioP2
65275;SDS011;51875;49.994;14.052;2023-05-10T00:00:46;4.85;;;2.85;;
65275;SDS011;51875;49.994;14.052;2023-05-10T00:02:02;4.13;;;2.53;;
65275;SDS011;51875;49.994;14.052;2023-05-10T00:03:17;6.05;;;2.70;;
65275;SDS011;51875;49.994;14.052;2023-05-10T00:04:33;5.47;;;2.95;;
65275;SDS011;51875;49.994;14.052;2023-05-10T00:05:48;3.72;;;2.63;;
65275;SDS011;51875;49.994;14.052;2023-05-10T00:07:04;4.30;;;2.90;;
65275;SDS011;51875;49.994;14.052;2023-05-10T00:08:20;4.78;;;3.00;;
65275;SDS011;51875;49.994;14.052;2023-05-10T00:09:35;5.20;;;3.10;;
65275;SDS011;51875;49.994;14.052;2023-05-10T00:10:51;6.20;;;3.28;;
65275;SDS011;51875;49.994;14.052;2023-05-10T00:12:08;7.32;;;3.17;;
65275;SDS011;51875;49.994;14.052;2023-05-10T00:13:23;4.72;;;3.17;;
65275;SDS011;51875;49.994;14.052;2023-05-10T00:14:39;3.95;;;2.75;;
65275;SDS011;51875;49.994;14.052;2023-05-10T00:15:54;6.53;;;2.60;;
65275;SDS011;51875;49.994;14.052;2023-05-10T00:17:10;4.05;;;3.10;;
65275;SDS011;51875;49.994;14.052;2023-05-10T00:18:25;5.38;;;3.13;;
65275;SDS011;51875;49.994;14.052;2023-05-10T00:19:41;7.40;;;3.15;;
65275;SDS011;51875;49.994;14.052;2023-05-10T00:20:57;4.47;;;3.13;;
65275;SDS011;51875;49.994;14.052;2023-05-10T00:22:12;5.10;;;3.20;;
65275;SDS011;51875;49.994;14.052;2023-05-10T00:23:28;4.35;;;3.13;;
65275;SDS011;51875;49.994;14.052;2023-05-10T00:24:44;4.75;;;3.15;;
65275;SDS011;51875;49.994;14.052;2023-05-10T00:25:59;5.60;;;3.75;;
65275;SDS011;51875;49.994;14.052;2023-05-10T00:27:15;6.47;;;3.95;;
65275;SDS011;51875;49.994;14.052;2023-05-10T00:28:30;8.43;;;4.07;;
65275;SDS011;51875;49.994;14.052;2023-05-10T00:29:46;5.00;;;3.65;;
65275;SDS011;51875;49.994;14.052;2023-05-10T00:31:01;6.65;;;4.43;;
65275;SDS011;51875;49.994;14.052;2023-05-10T00:32:17;7.57;;;4.20;;
65275;SDS011;51875;49.994;14.052;2023-05-10T00:33:33;6.50;;;3.75;;
65275;SDS011;51875;49.994;14.052;2023-05-10T00:34:48;7.05;;;3.70;;
65275;SDS011;51875;49.994;14.052;2023-05-10T00:36:04;5.45;;;3.42;;
65275;SDS011;51875;49.994;14.052;2023-05-10T00:37:22;6.63;;;3.53;;
65275;SDS011;51875;49.994;14.052;2023-05-10T00:38:38;5.22;;;3.65;;
65275;SDS011;51875;49.994;14.052;2023-05-10T00:39:53;5.13;;;3.50;;
65275;SDS011;51875;49.994;14.052;2023-05-10T00:41:09;5.07;;;3.40;;
65275;SDS011;51875;49.994;14.052;2023-05-10T00:42:24;7.22;;;3.53;;
65275;SDS011;51875;49.994;14.052;2023-05-10T00:43:40;6.15;;;3.47;;
65275;SDS011;51875;49.994;14.052;2023-05-10T00:44:55;5.47;;;3.30;;
65275;SDS011;51875;49.994;14.052;2023-05-10T00:46:11;5.63;;;3.08;;
65275;SDS011;51875;49.994;14.052;2023-05-10T00:47:29;4.50;;;3.38;;
65275;SDS011;51875;49.994;14.052;2023-05-10T00:48:44;7.03;;;3.90;;
65275;SDS011;51875;49.994;14.052;2023-05-10T00:50:00;7.47;;;3.40;;
65275;SDS011;51875;49.994;14.052;2023-05-10T00:51:16;4.78;;;3.45;;
65275;SDS011;51875;49.994;14.052;2023-05-10T00:52:32;4.72;;;3.30;;
65275;SDS011;51875;49.994;14.052;2023-05-10T00:53:48;5.60;;;3.42;;
65275;SDS011;51875;49.994;14.052;2023-05-10T00:55:04;3.92;;;3.15;;
65275;SDS011;51875;49.994;14.052;2023-05-10T00:56:21;5.80;;;3.13;;
65275;SDS011;51875;49.994;14.052;2023-05-10T00:57:38;4.82;;;3.22;;
65275;SDS011;51875;49.994;14.052;2023-05-10T00:58:54;5.55;;;3.50;;
65275;SDS011;51875;49.994;14.052;2023-05-10T01:00:11;6.38;;;3.30;;
65275;SDS011;51875;49.994;14.052;2023-05-10T01:01:28;3.92;;;2.60;;
65275;SDS011;51875;49.994;14.052;2023-05-10T01:02:44;4.97;;;3.17;;
65275;SDS011;51875;49.994;14.052;2023-05-10T01:04:01;5.22;;;3.47;;
65275;SDS011;51875;49.994;14.052;2023-05-10T01:05:17;4.80;;;3.50;;
65275;SDS011;51875;49.994;14.052;2023-05-10T01:06:32;4.97;;;3.00;;
65275;SDS011;51875;49.994;14.052;2023-05-10T01:07:48;5.57;;;2.92;;
65275;SDS011;51875;49.994;14.052;2023-05-10T01:09:04;6.47;;;3.45;;
65275;SDS011;51875;49.994;14.052;2023-05-10T01:10:19;5.13;;;3.08;;
65275;SDS011;51875;49.994;14.052;2023-05-10T01:11:35;4.97;;;3.28;;
65275;SDS011;51875;49.994;14.052;2023-05-10T01:12:53;5.13;;;3.20;;
65275;SDS011;51875;49.994;14.052;2023-05-10T01:14:08;4.82;;;3.08;;
65275;SDS011;51875;49.994;14.052;2023-05-10T01:15:24;6.65;;;3.05;;
65275;SDS011;51875;49.994;14.052;2023-05-10T01:16:41;5.78;;;3.22;;
65275;SDS011;51875;49.994;14.052;2023-05-10T01:17:58;5.13;;;3.28;;
65275;SDS011;51875;49.994;14.052;2023-05-10T01:19:28;7.78;;;3.20;;
65275;SDS011;51875;49.994;14.052;2023-05-10T01:20:46;6.00;;;3.35;;
65275;SDS011;51875;49.994;14.052;2023-05-10T01:26:50;5.05;;;3.08;;
65275;SDS011;51875;49.994;14.052;2023-05-10T01:30:09;7.07;;;2.85;;
65275;SDS011;51875;49.994;14.052;2023-05-10T01:33:18;6.30;;;3.50;;
65275;SDS011;51875;49.994;14.052;2023-05-10T01:34:42;5.93;;;3.28;;
65275;SDS011;51875;49.994;14.052;2023-05-10T01:37:47;4.88;;;3.20;;
65275;SDS011;51875;49.994;14.052;2023-05-10T01:40:40;4.55;;;3.10;;
65275;SDS011;51875;49.994;14.052;2023-05-10T01:42:20;4.32;;;3.35;;
65275;SDS011;51875;49.994;14.052;2023-05-10T01:45:18;6.22;;;3.13;;
65275;SDS011;51875;49.994;14.052;2023-05-10T01:46:40;4.50;;;3.42;;
65275;SDS011;51875;49.994;14.052;2023-05-10T01:48:06;5.20;;;3.30;;
65275;SDS011;51875;49.994;14.052;2023-05-10T01:49:25;6.90;;;3.33;;
65275;SDS011;51875;49.994;14.052;2023-05-10T01:50:44;6.10;;;3.42;;
65275;SDS011;51875;49.994;14.052;2023-05-10T01:52:04;6.25;;;3.50;;
65275;SDS011;51875;49.994;14.052;2023-05-10T01:53:25;4.90;;;3.10;;
65275;SDS011;51875;49.994;14.052;2023-05-10T01:54:44;5.90;;;3.50;;
65275;SDS011;51875;49.994;14.052;2023-05-10T01:56:11;5.47;;;3.38;;
65275;SDS011;51875;49.994;14.052;2023-05-10T01:57:32;4.82;;;3.20;;
65275;SDS011;51875;49.994;14.052;2023-05-10T01:58:49;4.10;;;3.00;;
65275;SDS011;51875;49.994;14.052;2023-05-10T02:00:08;4.93;;;3.20;;
65275;SDS011;51875;49.994;14.052;2023-05-10T02:01:25;4.25;;;3.05;;
65275;SDS011;51875;49.994;14.052;2023-05-10T02:02:44;4.15;;;3.00;;
65275;SDS011;51875;49.994;14.052;2023-05-10T02:04:01;4.22;;;2.88;;
65275;SDS011;51875;49.994;14.052;2023-05-10T02:05:18;4.68;;;3.10;;
65275;SDS011;51875;49.994;14.052;2023-05-10T02:06:36;5.25;;;3.03;;
65275;SDS011;51875;49.994;14.052;2023-05-10T02:07:54;6.53;;;3.30;;
65275;SDS011;51875;49.994;14.052;2023-05-10T02:09:11;4.47;;;3.28;;
65275;SDS011;51875;49.994;14.052;2023-05-10T02:10:29;6.55;;;2.85;;
65275;SDS011;51875;49.994;14.052;2023-05-10T02:11:45;4.32;;;2.80;;
65275;SDS011;51875;49.994;14.052;2023-05-10T02:13:03;4.30;;;2.97;;
65275;SDS011;51875;49.994;14.052;2023-05-10T02:14:21;4.43;;;3.30;;
65275;SDS011;51875;49.994;14.052;2023-05-10T02:15:39;4.85;;;3.13;;
65275;SDS011;51875;49.994;14.052;2023-05-10T02:16:56;7.20;;;3.25;;
65275;SDS011;51875;49.994;14.052;2023-05-10T02:18:13;4.88;;;3.45;;
65275;SDS011;51875;49.994;14.052;2023-05-10T02:19:31;6.88;;;3.47;;
65275;SDS011;51875;49.994;14.052;2023-05-10T02:20:48;4.63;;;3.33;;
65275;SDS011;51875;49.994;14.052;2023-05-10T02:22:07;5.72;;;3.40;;
65275;SDS011;51875;49.994;14.052;2023-05-10T02:23:24;5.97;;;3.53;;
65275;SDS011;51875;49.994;14.052;2023-05-10T02:24:41;8.27;;;3.40;;
65275;SDS011;51875;49.994;14.052;2023-05-10T02:25:58;6.05;;;3.08;;
65275;SDS011;51875;49.994;14.052;2023-05-10T02:27:17;5.45;;;3.35;;
65275;SDS011;51875;49.994;14.052;2023-05-10T02:28:35;4.80;;;3.65;;
65275;SDS011;51875;49.994;14.052;2023-05-10T02:29:52;4.93;;;2.92;;
65275;SDS011;51875;49.994;14.052;2023-05-10T02:31:09;4.75;;;3.30;;
65275;SDS011;51875;49.994;14.052;2023-05-10T02:32:26;5.10;;;2.75;;
65275;SDS011;51875;49.994;14.052;2023-05-10T02:33:42;5.10;;;3.50;;
65275;SDS011;51875;49.994;14.052;2023-05-10T02:34:59;4.22;;;3.10;;
65275;SDS011;51875;49.994;14.052;2023-05-10T02:36:18;4.07;;;2.83;;
65275;SDS011;51875;49.994;14.052;2023-05-10T02:37:36;5.70;;;3.20;;
65275;SDS011;51875;49.994;14.052;2023-05-10T02:38:53;5.03;;;3.17;;
65275;SDS011;51875;49.994;14.052;2023-05-10T02:40:10;3.83;;;2.65;;
65275;SDS011;51875;49.994;14.052;2023-05-10T02:41:26;5.45;;;3.28;;
65275;SDS011;51875;49.994;14.052;2023-05-10T02:42:43;4.65;;;3.05;;
65275;SDS011;51875;49.994;14.052;2023-05-10T02:44:02;4.32;;;3.40;;
65275;SDS011;51875;49.994;14.052;2023-05-10T02:45:23;4.97;;;3.45;;
65275;SDS011;51875;49.994;14.052;2023-05-10T02:46:44;8.25;;;3.75;;
65275;SDS011;51875;49.994;14.052;2023-05-10T02:48:00;4.35;;;3.00;;
65275;SDS011;51875;49.994;14.052;2023-05-10T02:49:16;4.65;;;3.78;;
65275;SDS011;51875;49.994;14.052;2023-05-10T02:50:32;4.25;;;3.15;;
65275;SDS011;51875;49.994;14.052;2023-05-10T02:51:50;5.93;;;3.40;;
65275;SDS011;51875;49.994;14.052;2023-05-10T02:53:11;6.00;;;3.70;;
65275;SDS011;51875;49.994;14.052;2023-05-10T02:54:33;4.97;;;3.53;;
65275;SDS011;51875;49.994;14.052;2023-05-10T02:55:54;4.93;;;3.25;;
65275;SDS011;51875;49.994;14.052;2023-05-10T02:57:16;5.63;;;3.05;;
65275;SDS011;51875;49.994;14.052;2023-05-10T02:58:34;4.40;;;3.28;;
65275;SDS011;51875;49.994;14.052;2023-05-10T02:59:50;4.82;;;3.25;;
65275;SDS011;51875;49.994;14.052;2023-05-10T03:01:06;4.38;;;3.20;;
65275;SDS011;51875;49.994;14.052;2023-05-10T03:02:23;5.20;;;3.17;;
65275;SDS011;51875;49.994;14.052;2023-05-10T03:03:38;4.75;;;3.33;;
65275;SDS011;51875;49.994;14.052;2023-05-10T03:04:54;6.15;;;3.53;;
65275;SDS011;51875;49.994;14.052;2023-05-10T03:06:09;5.40;;;3.55;;
65275;SDS011;51875;49.994;14.052;2023-05-10T03:07:25;5.47;;;3.30;;
65275;SDS011;51875;49.994;14.052;2023-05-10T03:08:40;4.35;;;3.35;;
65275;SDS011;51875;49.994;14.052;2023-05-10T03:09:56;6.80;;;3.20;;
65275;SDS011;51875;49.994;14.052;2023-05-10T03:16:35;4.78;;;3.35;;
65275;SDS011;51875;49.994;14.052;2023-05-10T03:18:07;6.00;;;2.90;;
65275;SDS011;51875;49.994;14.052;2023-05-10T03:19:27;6.68;;;3.70;;
65275;SDS011;51875;49.994;14.052;2023-05-10T03:21:03;5.05;;;3.47;;
65275;SDS011;51875;49.994;14.052;2023-05-10T03:22:30;6.18;;;3.53;;
65275;SDS011;51875;49.994;14.052;2023-05-10T03:24:08;6.05;;;3.20;;
65275;SDS011;51875;49.994;14.052;2023-05-10T03:25:26;5.68;;;3.42;;
65275;SDS011;51875;49.994;14.052;2023-05-10T03:26:44;5.40;;;3.75;;
65275;SDS011;51875;49.994;14.052;2023-05-10T03:28:01;5.00;;;3.38;;
65275;SDS011;51875;49.994;14.052;2023-05-10T03:29:18;4.68;;;3.25;;
65275;SDS011;51875;49.994;14.052;2023-05-10T03:30:35;4.88;;;3.10;;
65275;SDS011;51875;49.994;14.052;2023-05-10T03:31:52;5.53;;;3.70;;
65275;SDS011;51875;49.994;14.052;2023-05-10T03:33:07;4.93;;;3.70;;
65275;SDS011;51875;49.994;14.052;2023-05-10T03:34:24;4.32;;;3.13;;
65275;SDS011;51875;49.994;14.052;2023-05-10T03:35:40;5.22;;;3.80;;
65275;SDS011;51875;49.994;14.052;2023-05-10T03:36:55;4.80;;;3.17;;
65275;SDS011;51875;49.994;14.052;2023-05-10T03:38:11;5.00;;;3.60;;
65275;SDS011;51875;49.994;14.052;2023-05-10T03:39:27;6.10;;;4.15;;
65275;SDS011;51875;49.994;14.052;2023-05-10T03:40:43;5.05;;;3.80;;
65275;SDS011;51875;49.994;14.052;2023-05-10T03:41:58;7.70;;;3.72;;
65275;SDS011;51875;49.994;14.052;2023-05-10T03:43:14;4.95;;;3.28;;
65275;SDS011;51875;49.994;14.052;2023-05-10T03:44:30;7.00;;;3.78;;
65275;SDS011;51875;49.994;14.052;2023-05-10T03:45:46;5.93;;;3.67;;
65275;SDS011;51875;49.994;14.052;2023-05-10T03:47:02;8.18;;;3.83;;
65275;SDS011;51875;49.994;14.052;2023-05-10T03:48:17;5.85;;;3.67;;
65275;SDS011;51875;49.994;14.052;2023-05-10T03:49:33;5.43;;;3.53;;
65275;SDS011;51875;49.994;14.052;2023-05-10T03:50:48;5.25;;;3.55;;
65275;SDS011;51875;49.994;14.052;2023-05-10T03:52:07;4.38;;;3.33;;
65275;SDS011;51875;49.994;14.052;2023-05-10T03:53:22;5.78;;;3.22;;
65275;SDS011;51875;49.994;14.052;2023-05-10T03:54:38;4.88;;;3.30;;
65275;SDS011;51875;49.994;14.052;2023-05-10T03:55:54;6.03;;;3.35;;
65275;SDS011;51875;49.994;14.052;2023-05-10T03:57:09;6.20;;;3.38;;
65275;SDS011;51875;49.994;14.052;2023-05-10T03:58:25;4.90;;;3.80;;
65275;SDS011;51875;49.994;14.052;2023-05-10T03:59:40;5.10;;;3.20;;
65275;SDS011;51875;49.994;14.052;2023-05-10T04:00:56;6.45;;;3.38;;
65275;SDS011;51875;49.994;14.052;2023-05-10T04:02:12;7.60;;;3.80;;
65275;SDS011;51875;49.994;14.052;2023-05-10T04:03:27;4.78;;;3.20;;
65275;SDS011;51875;49.994;14.052;2023-05-10T04:04:42;5.40;;;3.63;;
65275;SDS011;51875;49.994;14.052;2023-05-10T04:05:59;7.38;;;3.83;;
65275;SDS011;51875;49.994;14.052;2023-05-10T04:07:16;4.78;;;3.65;;
65275;SDS011;51875;49.994;14.052;2023-05-10T04:08:31;4.53;;;3.42;;
65275;SDS011;51875;49.994;14.052;2023-05-10T04:09:47;5.57;;;3.70;;
65275;SDS011;51875;49.994;14.052;2023-05-10T04:11:09;5.63;;;3.58;;
65275;SDS011;51875;49.994;14.052;2023-05-10T04:12:26;5.57;;;3.33;;
65275;SDS011;51875;49.994;14.052;2023-05-10T04:13:42;5.68;;;3.33;;
65275;SDS011;51875;49.994;14.052;2023-05-10T04:14:58;4.63;;;3.20;;
65275;SDS011;51875;49.994;14.052;2023-05-10T04:16:13;6.75;;;4.25;;
65275;SDS011;51875;49.994;14.052;2023-05-10T04:17:29;6.10;;;3.40;;
65275;SDS011;51875;49.994;14.052;2023-05-10T04:18:44;5.53;;;3.33;;
65275;SDS011;51875;49.994;14.052;2023-05-10T04:20:00;7.40;;;3.60;;
65275;SDS011;51875;49.994;14.052;2023-05-10T04:21:16;5.47;;;3.78;;
65275;SDS011;51875;49.994;14.052;2023-05-10T04:22:31;5.32;;;3.72;;
65275;SDS011;51875;49.994;14.052;2023-05-10T04:23:47;7.30;;;3.83;;
65275;SDS011;51875;49.994;14.052;2023-05-10T04:25:03;8.57;;;3.75;;
65275;SDS011;51875;49.994;14.052;2023-05-10T04:26:19;7.97;;;4.00;;
65275;SDS011;51875;49.994;14.052;2023-05-10T04:27:35;6.05;;;4.22;;
65275;SDS011;51875;49.994;14.052;2023-05-10T04:28:51;5.15;;;3.70;;
65275;SDS011;51875;49.994;14.052;2023-05-10T04:30:07;4.53;;;3.10;;
65275;SDS011;51875;49.994;14.052;2023-05-10T04:31:22;5.60;;;3.70;;
65275;SDS011;51875;49.994;14.052;2023-05-10T04:32:38;6.88;;;3.63;;
65275;SDS011;51875;49.994;14.052;2023-05-10T04:33:54;7.30;;;4.20;;
65275;SDS011;51875;49.994;14.052;2023-05-10T04:35:09;7.65;;;3.90;;
65275;SDS011;51875;49.994;14.052;2023-05-10T04:36:25;6.05;;;3.90;;
65275;SDS011;51875;49.994;14.052;2023-05-10T04:37:41;5.75;;;3.53;;
65275;SDS011;51875;49.994;14.052;2023-05-10T04:38:56;5.55;;;3.53;;
65275;SDS011;51875;49.994;14.052;2023-05-10T04:40:12;7.45;;;4.40;;
65275;SDS011;51875;49.994;14.052;2023-05-10T04:41:28;6.93;;;3.90;;
65275;SDS011;51875;49.994;14.052;2023-05-10T04:42:43;5.28;;;3.45;;
65275;SDS011;51875;49.994;14.052;2023-05-10T04:43:59;5.72;;;3.65;;
65275;SDS011;51875;49.994;14.052;2023-05-10T04:45:15;8.10;;;4.40;;
65275;SDS011;51875;49.994;14.052;2023-05-10T04:46:30;4.43;;;3.15;;
65275;SDS011;51875;49.994;14.052;2023-05-10T04:47:46;4.40;;;3.38;;
65275;SDS011;51875;49.994;14.052;2023-05-10T04:49:01;7.28;;;3.65;;
65275;SDS011;51875;49.994;14.052;2023-05-10T04:50:17;5.70;;;3.50;;
65275;SDS011;51875;49.994;14.052;2023-05-10T04:51:33;5.63;;;3.30;;
65275;SDS011;51875;49.994;14.052;2023-05-10T04:52:48;5.18;;;3.47;;
65275;SDS011;51875;49.994;14.052;2023-05-10T04:54:04;5.50;;;3.30;;
65275;SDS011;51875;49.994;14.052;2023-05-10T04:55:19;7.82;;;3.97;;
65275;SDS011;51875;49.994;14.052;2023-05-10T04:56:35;4.60;;;2.90;;
65275;SDS011;51875;49.994;14.052;2023-05-10T04:57:50;5.43;;;3.75;;
65275;SDS011;51875;49.994;14.052;2023-05-10T04:59:06;6.30;;;3.80;;
65275;SDS011;51875;49.994;14.052;2023-05-10T05:00:22;5.72;;;4.05;;
65275;SDS011;51875;49.994;14.052;2023-05-10T05:01:38;5.70;;;3.60;;
65275;SDS011;51875;49.994;14.052;2023-05-10T05:02:54;5.28;;;3.53;;
65275;SDS011;51875;49.994;14.052;2023-05-10T05:04:10;8.40;;;3.90;;
65275;SDS011;51875;49.994;14.052;2023-05-10T05:05:26;6.13;;;3.85;;
65275;SDS011;51875;49.994;14.052;2023-05-10T05:06:41;6.00;;;4.40;;
65275;SDS011;51875;49.994;14.052;2023-05-10T05:07:57;5.45;;;3.95;;
65275;SDS011;51875;49.994;14.052;2023-05-10T05:09:12;5.45;;;3.72;;
65275;SDS011;51875;49.994;14.052;2023-05-10T05:10:28;8.77;;;4.05;;
65275;SDS011;51875;49.994;14.052;2023-05-10T05:11:43;8.77;;;4.25;;
65275;SDS011;51875;49.994;14.052;2023-05-10T05:12:59;7.55;;;4.32;;
65275;SDS011;51875;49.994;14.052;2023-05-10T05:14:15;7.05;;;4.22;;
65275;SDS011;51875;49.994;14.052;2023-05-10T05:15:30;6.40;;;4.10;;
65275;SDS011;51875;49.994;14.052;2023-05-10T05:16:46;6.00;;;3.70;;
65275;SDS011;51875;49.994;14.052;2023-05-10T05:18:01;6.03;;;3.47;;
65275;SDS011;51875;49.994;14.052;2023-05-10T05:19:17;5.00;;;3.33;;
65275;SDS011;51875;49.994;14.052;2023-05-10T05:20:33;6.10;;;3.80;;
65275;SDS011;51875;49.994;14.052;2023-05-10T05:21:49;8.32;;;4.00;;
65275;SDS011;51875;49.994;14.052;2023-05-10T05:23:05;4.93;;;3.45;;
65275;SDS011;51875;49.994;14.052;2023-05-10T05:24:21;6.00;;;3.65;;
65275;SDS011;51875;49.994;14.052;2023-05-10T05:25:36;8.15;;;4.32;;
65275;SDS011;51875;49.994;14.052;2023-05-10T05:26:52;5.13;;;3.90;;
65275;SDS011;51875;49.994;14.052;2023-05-10T05:28:07;6.78;;;3.80;;
65275;SDS011;51875;49.994;14.052;2023-05-10T05:29:23;5.97;;;3.95;;
65275;SDS011;51875;49.994;14.052;2023-05-10T05:30:38;5.65;;;3.83;;
65275;SDS011;51875;49.994;14.052;2023-05-10T05:31:54;4.90;;;3.20;;
65275;SDS011;51875;49.994;14.052;2023-05-10T05:33:10;5.57;;;3.45;;
65275;SDS011;51875;49.994;14.052;2023-05-10T05:34:26;5.32;;;3.60;;
65275;SDS011;51875;49.994;14.052;2023-05-10T05:35:42;4.78;;;3.42;;
65275;SDS011;51875;49.994;14.052;2023-05-10T05:37:02;6.15;;;3.63;;
65275;SDS011;51875;49.994;14.052;2023-05-10T05:38:18;5.20;;;3.33;;
65275;SDS011;51875;49.994;14.052;2023-05-10T05:39:35;7.85;;;3.85;;
65275;SDS011;51875;49.994;14.052;2023-05-10T05:40:51;4.53;;;3.35;;
65275;SDS011;51875;49.994;14.052;2023-05-10T05:42:06;6.03;;;3.88;;
65275;SDS011;51875;49.994;14.052;2023-05-10T05:43:22;4.97;;;3.42;;
65275;SDS011;51875;49.994;14.052;2023-05-10T05:44:38;5.25;;;3.55;;
65275;SDS011;51875;49.994;14.052;2023-05-10T05:45:54;4.45;;;3.30;;
65275;SDS011;51875;49.994;14.052;2023-05-10T05:47:09;4.38;;;3.30;;
65275;SDS011;51875;49.994;14.052;2023-05-10T05:48:25;5.65;;;3.42;;
65275;SDS011;51875;49.994;14.052;2023-05-10T05:49:41;4.85;;;3.42;;
65275;SDS011;51875;49.994;14.052;2023-05-10T05:50:57;5.82;;;3.40;;
65275;SDS011;51875;49.994;14.052;2023-05-10T05:52:12;6.30;;;3.42;;
65275;SDS011;51875;49.994;14.052;2023-05-10T05:53:28;5.68;;;3.35;;
65275;SDS011;51875;49.994;14.052;2023-05-10T05:54:44;6.43;;;3.42;;
65275;SDS011;51875;49.994;14.052;2023-05-10T05:55:59;9.70;;;3.53;;
65275;SDS011;51875;49.994;14.052;2023-05-10T05:57:15;4.75;;;2.88;;
65275;SDS011;51875;49.994;14.052;2023-05-10T05:58:31;6.65;;;3.33;;
65275;SDS011;51875;49.994;14.052;2023-05-10T05:59:46;4.97;;;2.70;;
65275;SDS011;51875;49.994;14.052;2023-05-10T06:01:02;6.55;;;3.10;;
65275;SDS011;51875;49.994;14.052;2023-05-10T06:02:17;5.40;;;2.72;;
65275;SDS011;51875;49.994;14.052;2023-05-10T06:03:33;3.22;;;2.42;;
65275;SDS011;51875;49.994;14.052;2023-05-10T06:04:49;5.38;;;2.40;;
65275;SDS011;51875;49.994;14.052;2023-05-10T06:06:04;3.70;;;2.50;;
65275;SDS011;51875;49.994;14.052;2023-05-10T06:07:20;4.40;;;2.88;;
65275;SDS011;51875;49.994;14.052;2023-05-10T06:08:36;8.90;;;4.20;;
65275;SDS011;51875;49.994;14.052;2023-05-10T06:09:51;5.20;;;2.80;;
65275;SDS011;51875;49.994;14.052;2023-05-10T06:11:07;4.28;;;2.70;;
65275;SDS011;51875;49.994;14.052;2023-05-10T06:12:23;3.78;;;2.40;;
65275;SDS011;51875;49.994;14.052;2023-05-10T06:13:38;5.97;;;2.40;;
65275;SDS011;51875;49.994;14.052;2023-05-10T06:14:54;3.30;;;2.20;;
65275;SDS011;51875;49.994;14.052;2023-05-10T06:16:09;5.75;;;3.13;;
65275;SDS011;51875;49.994;14.052;2023-05-10T06:17:25;5.03;;;2.65;;
65275;SDS011;51875;49.994;14.052;2023-05-10T06:18:41;3.08;;;2.30;;
65275;SDS011;51875;49.994;14.052;2023-05-10T06:19:57;4.07;;;2.45;;
65275;SDS011;51875;49.994;14.052;2023-05-10T06:21:12;3.28;;;2.58;;
65275;SDS011;51875;49.994;14.052;2023-05-10T06:22:28;3.40;;;2.60;;
65275;SDS011;51875;49.994;14.052;2023-05-10T06:23:43;5.35;;;2.70;;
65275;SDS011;51875;49.994;14.052;2023-05-10T06:24:59;3.40;;;2.15;;
65275;SDS011;51875;49.994;14.052;2023-05-10T06:26:14;5.82;;;2.40;;
65275;SDS011;51875;49.994;14.052;2023-05-10T06:27:30;6.82;;;3.20;;
65275;SDS011;51875;49.994;14.052;2023-05-10T06:28:46;6.30;;;2.75;;
65275;SDS011;51875;49.994;14.052;2023-05-10T06:30:01;4.85;;;2.90;;
65275;SDS011;51875;49.994;14.052;2023-05-10T06:31:18;4.05;;;2.58;;
65275;SDS011;51875;49.994;14.052;2023-05-10T06:32:33;6.78;;;2.40;;
65275;SDS011;51875;49.994;14.052;2023-05-10T06:33:49;6.28;;;3.92;;
65275;SDS011;51875;49.994;14.052;2023-05-10T06:35:05;4.13;;;2.35;;
65275;SDS011;51875;49.994;14.052;2023-05-10T06:36:20;4.65;;;2.63;;
65275;SDS011;51875;49.994;14.052;2023-05-10T06:37:37;4.15;;;2.65;;
65275;SDS011;51875;49.994;14.052;2023-05-10T06:38:52;3.03;;;2.20;;
65275;SDS011;51875;49.994;14.052;2023-05-10T06:40:08;3.40;;;2.65;;
65275;SDS011;51875;49.994;14.052;2023-05-10T06:41:24;3.45;;;2.55;;
65275;SDS011;51875;49.994;14.052;2023-05-10T06:42:40;2.75;;;2.15;;
65275;SDS011;51875;49.994;14.052;2023-05-10T06:43:55;3.08;;;2.22;;
65275;SDS011;51875;49.994;14.052;2023-05-10T06:45:11;3.65;;;2.40;;
65275;SDS011;51875;49.994;14.052;2023-05-10T06:46:26;4.38;;;2.58;;
65275;SDS011;51875;49.994;14.052;2023-05-10T06:47:42;3.75;;;2.50;;
65275;SDS011;51875;49.994;14.052;2023-05-10T06:48:58;4.45;;;2.30;;
65275;SDS011;51875;49.994;14.052;2023-05-10T06:50:14;4.53;;;1.92;;
65275;SDS011;51875;49.994;14.052;2023-05-10T06:51:30;3.42;;;2.35;;
65275;SDS011;51875;49.994;14.052;2023-05-10T06:52:45;4.03;;;2.55;;
65275;SDS011;51875;49.994;14.052;2023-05-10T06:54:01;4.18;;;2.55;;
65275;SDS011;51875;49.994;14.052;2023-05-10T06:55:17;3.50;;;2.30;;
65275;SDS011;51875;49.994;14.052;2023-05-10T06:56:32;2.60;;;2.20;;
65275;SDS011;51875;49.994;14.052;2023-05-10T06:57:48;3.13;;;2.40;;
65275;SDS011;51875;49.994;14.052;2023-05-10T06:59:04;3.10;;;2.38;;
65275;SDS011;51875;49.994;14.052;2023-05-10T07:00:19;4.15;;;2.33;;
65275;SDS011;51875;49.994;14.052;2023-05-10T07:01:35;9.45;;;2.40;;
65275;SDS011;51875;49.994;14.052;2023-05-10T07:02:51;4.45;;;2.55;;
65275;SDS011;51875;49.994;14.052;2023-05-10T07:04:07;4.95;;;2.85;;
65275;SDS011;51875;49.994;14.052;2023-05-10T07:05:22;3.63;;;2.67;;
65275;SDS011;51875;49.994;14.052;2023-05-10T07:06:38;4.78;;;2.50;;
65275;SDS011;51875;49.994;14.052;2023-05-10T07:07:53;3.75;;;2.33;;
65275;SDS011;51875;49.994;14.052;2023-05-10T07:09:09;5.18;;;2.78;;
65275;SDS011;51875;49.994;14.052;2023-05-10T07:10:25;3.95;;;2.50;;
65275;SDS011;51875;49.994;14.052;2023-05-10T07:11:40;2.80;;;2.33;;
65275;SDS011;51875;49.994;14.052;2023-05-10T07:12:56;2.50;;;2.25;;
65275;SDS011;51875;49.994;14.052;2023-05-10T07:14:11;2.95;;;2.28;;
65275;SDS011;51875;49.994;14.052;2023-05-10T07:15:27;5.45;;;2.53;;
65275;SDS011;51875;49.994;14.052;2023-05-10T07:16:43;3.60;;;2.65;;
65275;SDS011;51875;49.994;14.052;2023-05-10T07:17:59;3.83;;;2.25;;
65275;SDS011;51875;49.994;14.052;2023-05-10T07:19:15;4.82;;;2.40;;
65275;SDS011;51875;49.994;14.052;2023-05-10T07:20:30;4.60;;;2.28;;
65275;SDS011;51875;49.994;14.052;2023-05-10T07:21:46;3.00;;;2.20;;
65275;SDS011;51875;49.994;14.052;2023-05-10T07:23:01;4.35;;;2.17;;
65275;SDS011;51875;49.994;14.052;2023-05-10T07:24:17;3.35;;;2.35;;
65275;SDS011;51875;49.994;14.052;2023-05-10T07:25:33;3.53;;;2.13;;
65275;SDS011;51875;49.994;14.052;2023-05-10T07:26:49;3.45;;;2.70;;
65275;SDS011;51875;49.994;14.052;2023-05-10T07:28:04;6.03;;;2.53;;
65275;SDS011;51875;49.994;14.052;2023-05-10T07:29:20;3.08;;;2.13;;
65275;SDS011;51875;49.994;14.052;2023-05-10T07:30:35;2.95;;;2.42;;
65275;SDS011;51875;49.994;14.052;2023-05-10T07:31:51;3.53;;;2.28;;
65275;SDS011;51875;49.994;14.052;2023-05-10T07:33:07;4.28;;;2.55;;
65275;SDS011;51875;49.994;14.052;2023-05-10T07:34:24;3.13;;;2.30;;
65275;SDS011;51875;49.994;14.052;2023-05-10T07:35:40;3.30;;;2.22;;
65275;SDS011;51875;49.994;14.052;2023-05-10T07:36:57;5.22;;;2.20;;
65275;SDS011;51875;49.994;14.052;2023-05-10T07:38:13;3.00;;;2.47;;
65275;SDS011;51875;49.994;14.052;2023-05-10T07:39:29;3.92;;;2.50;;
65275;SDS011;51875;49.994;14.052;2023-05-10T07:40:45;6.30;;;2.60;;
65275;SDS011;51875;49.994;14.052;2023-05-10T07:42:00;5.05;;;2.47;;
65275;SDS011;51875;49.994;14.052;2023-05-10T07:43:16;3.38;;;2.38;;
65275;SDS011;51875;49.994;14.052;2023-05-10T07:44:31;4.18;;;2.40;;
65275;SDS011;51875;49.994;14.052;2023-05-10T07:45:47;3.63;;;2.55;;
65275;SDS011;51875;49.994;14.052;2023-05-10T07:47:02;7.45;;;2.78;;
65275;SDS011;51875;49.994;14.052;2023-05-10T07:48:18;4.85;;;2.80;;
65275;SDS011;51875;49.994;14.052;2023-05-10T07:49:33;5.13;;;2.40;;
65275;SDS011;51875;49.994;14.052;2023-05-10T07:50:49;2.83;;;2.50;;
65275;SDS011;51875;49.994;14.052;2023-05-10T07:52:04;3.95;;;2.53;;
65275;SDS011;51875;49.994;14.052;2023-05-10T07:53:20;5.97;;;2.50;;